メインページ
METAR-TAF:

METAR-TAF

空港 :

百里飛行場, 日本

緯度: 36-11N, 経度: 140-25E, 海抜: 32m

現時点の気象観測

当レポートは44分前の23:00(UTC)に作成
無風
気温 -2°C
湿度 63%
気圧 1021 hPa
視程10km以上
高度3000ftの雲はほとんどない
高度23000ftの千切れ雲あり

METAR: RJAH 182300Z 00000KT 9999 FEW030 BKN230 M02/M08 Q1021

時間: 08:44 (23:44 UTC)

予報

当レポートは38分前の23:06(UTC)に作成
予報は19日の 00時(UTC)から 20日の 06時(UTC)まで有効
南西の風 6kt
視程10km以上
高度3000ftの雲はほとんどない
19日の 09時(UTC)から 19日の 11時(UTC)まで徐々に
の風 4kt

TAF: RJAH 182306Z 1900/2006 22006KT 9999 FEW030 BECMG 1909/1911 35004KT

4,000以上の空港の気象観測と天気予報(METAR報とTAF報)

利用可能な観測所は地図上に黄色い丸と赤い丸で示す。

丸の上にカーソルを重ねると観測所名を参照できる。

次にクリックすると気象観測と天気予報を参照できる。

マップの切り替え:黒色「×」印の緑ボタンをクリックして拡大、「-」印の緑ボタンをクリックして縮小、緑色の三角印をクリックして隣りの地図に切り替え


METAR-TAF: